UTST

Termez Airport

Termez, Uzbekistan
TAF UTST 251100Z 2512/2612 VRB06KT 6000 NSC TEMPO 2512/2521 26008G18KT SCT060CB BKN100
Issued Valid From Valid To
Sep-25 @ 11:00 UTC
(6 hours ago)
Sep-25 @ 12:00 UTC
(5 hours ago)
Sep-26 @ 12:00 UTC
(in 19 hours)
Sep-25 @ 12:00 to Sep-26 @ 12:00
TAF UTST 251100Z 2512/2612 VRB06KT 6000 NSC
Wind Visibility Clouds
Variable at 6 knots 6,003 meters
  • No significant clouds
Temporary Sep-25 @ 12:00 to Sep-25 @ 21:00
TEMPO 2512/2521 26008G18KT SCT060CB BKN100
Wind Clouds
260° at 8 knots
 Gusting to 18 knots
  • Scattered at 6,000' AGL
  • Broken at 10,000' AGL
TAF UTST 251100Z 2512/2612 VRB06KT 6000 NSC TEMPO 2512/2521 26008G18KT SCT060CB BKN100
Issued Sep-25 @ 11:00 UTC
(6 hours ago)
Valid From Sep-25 @ 12:00 UTC
(5 hours ago)
Valid To Sep-26 @ 12:00 UTC
(in 19 hours)
Sep-25 @ 12:00 - Sep-26 @ 12:00
Wind Visibility
Variable at 6 knots 6,003 meters
Clouds
  • No significant clouds
Temporary Sep-25 @ 12:00 - Sep-25 @ 21:00
Wind
260° at 8 knots
 Gusting to 18 knots
Clouds
  • Scattered at 6,000' AGL
  • Broken at 10,000' AGL